Time;durP1;ratioP1;P1;durP2;ratioP2;P2;SDS_P1;SDS_P2;PMS_P1;PMS_P2;Temp;Humidity;BMP_temperature;BMP_pressure;BME280_temperature;BME280_humidity;BME280_pressure;Samples;Min_cycle;Max_cycle;Signal;HPM_P1;HPM_P2
2023/01/27 00:01:04;;;;;;;29.38;13.15;;;-0.10;99.90;;;-0.66;100.00;98069.72;4950167;28;20054;-70
2023/01/27 00:03:31;;;;;;;42.33;15.15;;;-0.10;99.90;;;-0.70;100.00;98070.50;4943057;28;20061;-70
2023/01/27 00:06:00;;;;;;;31.45;13.07;;;-0.10;99.90;;;-0.61;100.00;98072.31;4958772;28;20497;-70
2023/01/27 00:08:29;;;;;;;22.77;11.25;;;0.00;99.90;;;-0.56;100.00;98070.66;4946339;28;20051;-70
2023/01/27 00:13:45;;;;;;;20.90;9.90;;;0.10;99.90;;;-0.49;100.00;98067.31;4948515;28;20046;-70
2023/01/27 00:16:14;;;;;;;19.95;10.73;;;0.00;99.90;;;-0.55;100.00;98067.25;4944668;28;20142;-70
2023/01/27 00:18:41;;;;;;;25.73;11.88;;;0.10;99.90;;;-0.35;100.00;98069.97;4960393;28;20438;-70
2023/01/27 00:26:39;;;;;;;17.35;8.02;;;0.20;99.90;;;-0.57;100.00;98056.16;4960636;28;20062;-70
2023/01/27 00:29:07;;;;;;;16.85;8.30;;;0.20;99.90;;;-0.33;100.00;98060.66;4961378;28;20047;-70
2023/01/27 00:34:19;;;;;;;18.15;8.93;;;0.20;99.90;;;-0.32;100.00;98062.34;4934847;28;20055;-70
2023/01/27 00:36:49;;;;;;;16.13;8.93;;;0.20;99.90;;;-0.53;100.00;98068.13;4946396;28;20046;-70
2023/01/27 00:39:16;;;;;;;18.23;9.20;;;0.20;99.90;;;-0.64;100.00;98061.22;4944943;28;20056;-70
2023/01/27 00:41:43;;;;;;;17.63;9.75;;;0.20;99.90;;;-0.68;100.00;98064.59;4958916;28;20039;-70
2023/01/27 00:44:12;;;;;;;17.08;8.90;;;0.20;99.90;;;-0.70;100.00;98066.25;4942515;28;20158;-70
2023/01/27 00:46:40;;;;;;;26.52;11.77;;;0.10;99.90;;;-0.64;100.00;98063.78;4963679;28;20501;-69
2023/01/27 00:49:09;;;;;;;24.85;10.55;;;0.00;99.90;;;-0.67;100.00;98062.88;4963365;28;20075;-70
2023/01/27 00:51:37;;;;;;;24.92;11.23;;;0.10;99.90;;;-0.59;100.00;98066.38;4946770;28;20447;-70
2023/01/27 00:54:04;;;;;;;37.92;14.93;;;0.10;99.90;;;-0.63;100.00;98065.47;4950381;28;20050;-70
2023/01/27 00:56:31;;;;;;;33.90;13.48;;;0.00;99.90;;;-0.68;100.00;98061.19;4948059;28;20058;-70
2023/01/27 00:58:59;;;;;;;26.10;11.77;;;0.00;99.90;;;-0.60;100.00;98071.44;4974070;28;20053;-70
2023/01/27 01:01:27;;;;;;;25.95;11.55;;;0.00;99.90;;;-0.60;100.00;98069.75;4926010;28;20051;-70
2023/01/27 01:03:55;;;;;;;28.65;11.60;;;0.00;99.90;;;-0.66;100.00;98062.91;4947074;28;20164;-70
2023/01/27 01:06:22;;;;;;;28.98;12.75;;;0.00;99.90;;;-0.54;100.00;98068.97;4957614;28;20066;-70
2023/01/27 01:08:52;;;;;;;28.35;11.77;;;0.00;99.90;;;-0.70;100.00;98062.88;4958574;28;20051;-70
2023/01/27 01:11:22;;;;;;;22.83;11.07;;;0.10;99.90;;;-0.57;100.00;98069.78;4962903;28;20057;-70
2023/01/27 01:13:49;;;;;;;30.80;12.15;;;0.00;99.90;;;-0.60;100.00;98067.19;4961609;28;20130;-70
2023/01/27 01:16:21;;;;;;;29.90;13.13;;;0.10;99.90;;;-0.51;100.00;98063.88;4959907;28;20748;-70
2023/01/27 01:18:48;;;;;;;25.90;12.43;;;0.00;99.90;;;-0.46;100.00;98068.22;4945738;28;20684;-70
2023/01/27 01:21:15;;;;;;;41.03;14.35;;;0.10;99.90;;;-0.60;100.00;98064.66;4946589;28;20053;-70
2023/01/27 01:23:45;;;;;;;32.80;14.18;;;0.10;99.90;;;-0.58;100.00;98074.88;4959959;28;20063;-70
2023/01/27 01:26:14;;;;;;;23.42;12.02;;;0.10;99.90;;;-0.63;100.00;98074.81;4947324;28;20055;-70
2023/01/27 01:28:44;;;;;;;33.05;13.98;;;0.10;99.90;;;-0.65;100.00;98073.97;4960613;28;20051;-70
2023/01/27 01:31:19;;;;;;;42.10;15.98;;;0.10;99.90;;;-0.62;100.00;98076.53;4944356;28;20062;-70
2023/01/27 01:33:47;;;;;;;31.25;12.13;;;0.00;99.90;;;-0.50;100.00;98070.69;4945658;28;20047;-70
2023/01/27 01:36:18;;;;;;;29.02;13.60;;;0.00;99.90;;;-0.57;100.00;98074.91;4944423;28;20047;-70
2023/01/27 01:38:46;;;;;;;32.47;14.18;;;0.10;99.90;;;-0.50;100.00;98069.00;4961559;28;20173;-70
2023/01/27 01:41:18;;;;;;;32.30;13.95;;;0.10;99.90;;;-0.51;100.00;98076.63;4943629;28;20209;-70
2023/01/27 01:43:45;;;;;;;29.92;14.38;;;0.10;99.90;;;-0.40;100.00;98072.50;4948585;28;20066;-70
2023/01/27 01:46:13;;;;;;;22.80;12.10;;;0.10;99.90;;;-0.72;100.00;98067.94;4957296;28;20077;-70
2023/01/27 01:48:58;;;;;;;28.17;12.18;;;0.10;99.90;;;-0.51;100.00;98067.28;4946423;28;20069;-70
2023/01/27 01:51:42;;;;;;;28.85;13.93;;;0.20;99.90;;;-0.65;100.00;98062.06;4943756;28;20058;-70
2023/01/27 01:54:27;;;;;;;32.47;13.60;;;0.10;99.90;;;-0.51;100.00;98061.34;4946216;28;20062;-70
2023/01/27 01:57:06;;;;;;;26.80;14.23;;;0.10;99.90;;;-0.60;100.00;98062.09;4943927;28;20129;-70
2023/01/27 01:59:40;;;;;;;27.08;12.48;;;0.10;99.90;;;-0.51;100.00;98056.22;4962154;28;20077;-70
2023/01/27 02:02:12;;;;;;;27.48;12.85;;;0.10;99.90;;;-0.49;100.00;98063.06;4973613;28;20418;-70
2023/01/27 02:04:56;;;;;;;30.45;14.02;;;0.10;99.90;;;-0.47;100.00;98052.88;4973589;28;20055;-70
2023/01/27 02:07:51;;;;;;;37.05;15.75;;;0.20;99.90;;;-0.46;100.00;98050.34;4959918;28;20060;-70
2023/01/27 02:10:18;;;;;;;40.30;15.30;;;0.10;99.90;;;-0.46;100.00;98047.81;4961310;28;20048;-70
2023/01/27 02:12:45;;;;;;;40.75;17.05;;;0.20;99.90;;;-0.54;100.00;98049.41;4959520;28;20050;-70
2023/01/27 02:15:12;;;;;;;38.05;16.70;;;0.20;99.90;;;-0.50;100.00;98046.06;4949347;28;20122;-70
2023/01/27 02:17:40;;;;;;;36.85;15.93;;;0.20;99.90;;;-0.69;100.00;98044.16;4950035;28;20046;-70
2023/01/27 02:20:28;;;;;;;28.75;13.95;;;0.10;99.90;;;-0.55;100.00;98047.69;4947033;28;20421;-70
2023/01/27 02:23:07;;;;;;;33.65;13.90;;;0.10;99.90;;;-0.58;100.00;98047.66;4952425;28;20156;-70
2023/01/27 02:25:34;;;;;;;32.08;13.50;;;0.10;99.90;;;-0.61;100.00;98050.22;4964958;28;20441;-70
2023/01/27 02:28:05;;;;;;;38.03;15.48;;;0.10;99.90;;;-0.54;100.00;98043.47;4961602;28;20097;-70
2023/01/27 02:30:32;;;;;;;31.33;13.43;;;0.10;99.90;;;-0.59;100.00;98047.66;4977980;28;20050;-70
2023/01/27 02:32:59;;;;;;;54.72;17.88;;;0.10;99.90;;;-0.65;100.00;98043.38;4934298;28;20047;-70
2023/01/27 02:35:40;;;;;;;37.60;16.60;;;0.10;99.90;;;-0.60;100.00;98048.50;4961327;28;20054;-70
2023/01/27 02:38:10;;;;;;;32.92;15.18;;;0.10;99.90;;;-0.68;100.00;98051.00;4959700;28;20050;-70
2023/01/27 02:40:39;;;;;;;43.78;16.73;;;0.10;99.90;;;-0.70;100.00;98052.66;4949854;28;20426;-70
2023/01/27 02:43:06;;;;;;;38.38;15.75;;;0.10;99.90;;;-0.47;100.00;98055.44;4963434;28;20050;-70
2023/01/27 02:45:33;;;;;;;61.03;17.85;;;0.10;99.90;;;-0.49;100.00;98054.56;4964144;28;20410;-70
2023/01/27 02:48:02;;;;;;;34.00;14.43;;;0.10;99.90;;;-0.53;100.00;98056.22;4944664;28;20050;-70
2023/01/27 02:50:28;;;;;;;47.45;17.55;;;0.10;99.90;;;-0.54;100.00;98057.06;4962659;28;20046;-70
2023/01/27 02:52:56;;;;;;;44.40;17.25;;;0.20;99.90;;;-0.58;100.00;98059.56;4961625;28;20052;-70
2023/01/27 02:55:23;;;;;;;27.92;13.50;;;0.10;99.90;;;-0.57;100.00;98056.16;4961201;28;20055;-70
2023/01/27 02:57:50;;;;;;;50.25;17.15;;;0.20;99.90;;;-0.54;100.00;98056.22;4958229;28;20055;-70
2023/01/27 03:00:17;;;;;;;37.17;14.35;;;0.20;99.90;;;-0.44;100.00;98058.00;4962984;28;20047;-70
2023/01/27 03:02:44;;;;;;;23.25;12.10;;;0.20;99.90;;;-0.47;100.00;98055.44;4961584;28;20511;-70
2023/01/27 03:05:13;;;;;;;28.88;12.25;;;0.20;99.90;;;-0.45;100.00;98058.84;4948199;28;20047;-70
2023/01/27 03:07:41;;;;;;;26.13;11.80;;;0.20;99.90;;;-0.44;100.00;98061.38;4947869;28;20096;-70
2023/01/27 03:10:09;;;;;;;26.38;10.32;;;0.20;99.90;;;-0.30;100.00;98058.09;4951475;28;20046;-70
2023/01/27 03:12:36;;;;;;;25.70;11.00;;;0.20;99.90;;;-0.37;100.00;98064.00;4947921;28;20059;-70
2023/01/27 03:20:35;;;;;;;28.52;11.18;;;0.30;99.90;;;-0.39;100.00;98061.44;4949501;28;20059;-69
2023/01/27 03:23:03;;;;;;;31.15;14.43;;;0.30;99.90;;;-0.36;100.00;98060.63;4952355;28;20114;-70
2023/01/27 03:25:30;;;;;;;37.40;15.23;;;0.30;99.90;;;-0.48;100.00;98059.69;4978948;28;20063;-70
2023/01/27 03:27:58;;;;;;;29.25;13.45;;;0.20;99.90;;;-0.41;100.00;98070.78;4961008;28;20066;-70
2023/01/27 03:30:29;;;;;;;31.25;13.30;;;0.30;99.90;;;-0.43;100.00;98064.81;4961894;28;20046;-70
2023/01/27 03:32:57;;;;;;;28.58;11.60;;;0.30;99.90;;;-0.35;100.00;98059.78;4958367;28;20085;-70
2023/01/27 03:35:32;;;;;;;16.52;7.53;;;0.30;99.90;;;-0.40;100.00;98059.75;4965035;28;20047;-70
2023/01/27 03:46:19;;;;;;;17.45;7.15;;;0.20;99.90;;;-0.47;100.00;98071.56;4947922;28;20134;-70
2023/01/27 03:48:55;;;;;;;18.20;7.18;;;0.30;99.90;;;-0.45;100.00;98067.34;4943277;28;20050;-70
2023/01/27 03:51:24;;;;;;;23.45;10.23;;;0.30;99.90;;;-0.40;100.00;98075.03;4957726;28;20122;-70
2023/01/27 03:53:52;;;;;;;23.73;8.60;;;0.30;99.90;;;-0.30;100.00;98069.16;4946823;28;20047;-70
2023/01/27 03:56:21;;;;;;;20.40;8.05;;;0.30;99.90;;;-0.44;100.00;98070.75;4975247;28;20047;-70
2023/01/27 03:58:49;;;;;;;17.52;7.47;;;0.20;99.90;;;-0.30;100.00;98068.31;4946126;28;20058;-70
2023/01/27 04:01:20;;;;;;;18.85;7.47;;;0.30;99.90;;;-0.44;100.00;98068.19;4931195;28;20822;-70
2023/01/27 04:06:59;;;;;;;11.73;5.57;;;0.30;99.90;;;-0.46;100.00;98064.78;4948147;28;20058;-70
2023/01/27 04:09:31;;;;;;;18.00;7.55;;;0.20;99.90;;;-0.45;100.00;98066.50;4971036;28;20054;-70
2023/01/27 04:12:03;;;;;;;15.68;7.00;;;0.20;99.90;;;-0.44;100.00;98070.75;4960321;28;20069;-70
2023/01/27 04:14:42;;;;;;;13.52;6.07;;;0.20;99.90;;;-0.39;100.00;98065.69;4975068;28;20058;-70
2023/01/27 04:17:15;;;;;;;15.55;6.32;;;0.30;99.90;;;-0.40;100.00;98071.66;4948857;28;20514;-70
2023/01/27 04:19:43;;;;;;;13.65;5.60;;;0.20;99.90;;;-0.46;100.00;98063.09;4941198;28;20055;-70
2023/01/27 04:22:15;;;;;;;12.35;6.20;;;0.30;99.90;;;-0.49;100.00;98069.84;4959197;28;20046;-71
2023/01/27 04:24:42;;;;;;;12.30;5.82;;;0.20;99.90;;;-0.42;100.00;98069.91;4975858;28;20082;-68
2023/01/27 04:27:14;;;;;;;11.88;5.80;;;0.20;99.90;;;-0.40;100.00;98048.69;4972550;28;20174;-71
2023/01/27 04:29:41;;;;;;;11.18;5.18;;;0.20;99.90;;;-0.39;100.00;98058.88;4947854;28;20593;-70
2023/01/27 04:32:11;;;;;;;10.20;4.93;;;0.30;99.90;;;-0.27;100.00;98069.22;4959925;28;20054;-71
2023/01/27 04:34:40;;;;;;;13.20;6.32;;;0.30;99.90;;;-0.44;100.00;98063.94;4955293;28;20051;-71
2023/01/27 04:37:09;;;;;;;10.77;5.10;;;0.20;99.90;;;-0.44;100.00;98061.38;4973336;28;20379;-70
2023/01/27 04:39:36;;;;;;;9.40;5.20;;;0.30;99.90;;;-0.31;100.00;98058.97;4944179;28;20055;-70
2023/01/27 04:42:04;;;;;;;7.32;4.05;;;0.30;99.90;;;-0.31;100.00;98066.63;4933198;28;20047;-70
2023/01/27 04:44:31;;;;;;;10.93;5.28;;;0.30;99.90;;;-0.45;100.00;98069.06;4948307;28;20141;-70
2023/01/27 04:46:59;;;;;;;11.60;6.18;;;0.30;99.90;;;-0.43;100.00;98072.47;4960988;28;20074;-70
2023/01/27 04:49:26;;;;;;;10.05;5.32;;;0.30;99.90;;;-0.43;100.00;98069.91;4960066;28;20502;-70
2023/01/27 04:51:54;;;;;;;10.73;5.57;;;0.20;99.90;;;-0.46;100.00;98062.22;4960880;28;20066;-70
2023/01/27 04:54:21;;;;;;;12.80;6.60;;;0.20;99.90;;;-0.44;100.00;98074.16;4959099;28;20063;-70
2023/01/27 04:57:02;;;;;;;9.02;4.68;;;0.20;99.90;;;-0.48;100.00;98074.09;4933510;28;20141;-70
2023/01/27 04:59:29;;;;;;;11.68;5.82;;;0.20;99.90;;;-0.44;100.00;98069.03;4960349;28;20141;-70
2023/01/27 05:01:58;;;;;;;12.85;6.07;;;0.20;99.90;;;-0.41;100.00;98078.44;4933474;28;20484;-70
2023/01/27 05:04:25;;;;;;;13.23;6.60;;;0.20;99.90;;;-0.47;100.00;98074.13;4941584;28;20141;-70
2023/01/27 05:06:53;;;;;;;12.07;6.88;;;0.20;99.90;;;-0.47;100.00;98074.13;4946883;28;20054;-70
2023/01/27 05:09:22;;;;;;;12.57;6.97;;;0.20;99.90;;;-0.45;100.00;98074.16;4947002;28;20532;-70
2023/01/27 05:11:49;;;;;;;11.23;5.85;;;0.20;99.90;;;-0.46;100.00;98072.44;4960112;28;20054;-70
2023/01/27 05:14:16;;;;;;;11.75;6.63;;;0.20;99.90;;;-0.43;100.00;98075.88;4945546;28;20055;-70
2023/01/27 05:16:44;;;;;;;13.88;6.38;;;0.20;99.90;;;-0.46;100.00;98080.06;4958164;28;20055;-70
2023/01/27 05:19:11;;;;;;;13.52;6.68;;;0.20;99.90;;;-0.48;100.00;98080.09;4977013;28;20047;-70
2023/01/27 05:21:39;;;;;;;12.75;6.75;;;0.20;99.90;;;-0.48;100.00;98085.19;4945170;28;20047;-70
2023/01/27 05:24:06;;;;;;;13.10;6.75;;;0.10;99.90;;;-0.38;100.00;98088.66;4961061;28;20502;-70
2023/01/27 05:26:33;;;;;;;13.88;7.30;;;0.20;99.90;;;-0.38;100.00;98086.13;4957789;28;20057;-70
2023/01/27 05:29:00;;;;;;;14.43;7.93;;;0.20;99.90;;;-0.29;100.00;98090.44;4945837;28;20050;-70
2023/01/27 05:31:33;;;;;;;16.38;7.55;;;0.20;99.90;;;-0.50;100.00;98102.16;4945521;28;20046;-70
2023/01/27 05:34:01;;;;;;;12.70;6.03;;;0.20;99.90;;;-0.54;100.00;98097.88;4970190;28;20136;-70
2023/01/27 05:36:29;;;;;;;12.95;7.35;;;0.20;99.90;;;-0.42;100.00;98099.66;4959486;28;20051;-69
2023/01/27 05:38:57;;;;;;;17.08;8.10;;;0.20;99.90;;;-0.47;100.00;98101.34;4973785;28;20633;-69
2023/01/27 05:41:24;;;;;;;14.48;7.35;;;0.20;99.90;;;-0.50;100.00;98097.06;4959151;28;20054;-69
2023/01/27 05:43:54;;;;;;;14.20;7.25;;;0.20;99.90;;;-0.58;100.00;98100.38;4961080;28;20440;-69
2023/01/27 05:46:25;;;;;;;13.27;7.00;;;0.20;99.90;;;-0.53;100.00;98106.38;4970721;28;20170;-69
2023/01/27 05:48:55;;;;;;;16.58;8.52;;;0.20;99.90;;;-0.60;100.00;98110.53;4971606;28;20062;-69
2023/01/27 05:51:24;;;;;;;17.10;9.00;;;0.10;99.90;;;-0.58;100.00;98108.88;4959865;28;20054;-69
2023/01/27 05:53:53;;;;;;;13.55;7.93;;;0.10;99.90;;;-0.59;100.00;98112.28;4975986;28;20058;-69
2023/01/27 05:56:21;;;;;;;13.10;6.47;;;0.10;99.90;;;-0.58;100.00;98111.41;4950630;28;20081;-69
2023/01/27 05:58:49;;;;;;;17.50;8.52;;;0.00;99.90;;;-0.57;100.00;98120.78;4947681;28;20046;-69
2023/01/27 06:01:21;;;;;;;15.40;7.47;;;0.10;99.90;;;-0.53;100.00;98111.47;4949372;28;20133;-69
2023/01/27 06:03:48;;;;;;;19.02;9.35;;;0.10;99.90;;;-0.53;100.00;98111.47;4950358;28;20406;-69
2023/01/27 06:06:19;;;;;;;16.60;9.25;;;0.10;99.90;;;-0.58;100.00;98116.50;4963148;28;20054;-69
2023/01/27 06:08:47;;;;;;;15.55;8.68;;;0.10;99.90;;;-0.58;100.00;98119.06;4952015;28;20061;-69
2023/01/27 06:11:16;;;;;;;16.88;9.15;;;0.10;99.90;;;-0.63;100.00;98124.13;4961361;28;20055;-69
2023/01/27 06:13:44;;;;;;;15.38;8.93;;;0.10;99.90;;;-0.60;100.00;98130.94;4952487;28;20058;-69
2023/01/27 06:16:18;;;;;;;17.85;8.63;;;0.10;99.90;;;-0.58;100.00;98124.16;4964800;28;20101;-69
2023/01/27 06:18:47;;;;;;;17.42;9.07;;;0.10;99.90;;;-0.69;100.00;98118.94;4977939;28;20051;-69
2023/01/27 06:21:16;;;;;;;23.55;10.57;;;0.00;99.90;;;-0.71;100.00;98122.31;4959831;28;20506;-69
2023/01/27 06:23:43;;;;;;;21.67;10.48;;;0.00;99.90;;;-0.73;100.00;98121.44;4953365;28;20053;-69
2023/01/27 06:26:16;;;;;;;19.70;9.77;;;0.00;99.90;;;-0.82;100.00;98114.56;4946204;28;20086;-69
2023/01/27 06:28:44;;;;;;;14.80;8.82;;;-0.10;99.90;;;-0.63;100.00;98121.56;4948641;28;20058;-68
2023/01/27 06:31:18;;;;;;;15.65;7.85;;;0.00;99.90;;;-0.50;100.00;98124.22;4969188;28;20065;-69
2023/01/27 06:33:45;;;;;;;17.73;9.10;;;0.10;99.90;;;-0.61;100.00;98128.41;4950133;28;20057;-70
2023/01/27 06:36:16;;;;;;;19.40;9.30;;;0.10;99.90;;;-0.64;100.00;98124.97;4967298;28;20047;-70
2023/01/27 06:38:44;;;;;;;20.45;11.25;;;0.00;99.90;;;-0.57;100.00;98128.44;4963984;28;20063;-69
2023/01/27 06:41:11;;;;;;;16.60;9.40;;;0.10;99.90;;;-0.45;100.00;98132.81;4965126;28;20518;-70
2023/01/27 06:43:39;;;;;;;18.67;9.82;;;0.20;99.90;;;-0.50;100.00;98130.22;4931831;28;20047;-70
2023/01/27 06:46:06;;;;;;;20.85;10.90;;;0.20;99.90;;;-0.58;100.00;98131.81;4944199;28;20050;-69
2023/01/27 06:48:33;;;;;;;18.55;9.68;;;0.10;99.90;;;-0.53;100.00;98121.66;4947097;28;20583;-70
2023/01/27 06:51:00;;;;;;;19.73;9.80;;;0.10;99.90;;;-0.53;100.00;98132.72;4937366;28;20057;-69
2023/01/27 06:53:28;;;;;;;15.40;9.27;;;0.10;99.90;;;-0.61;100.00;98134.34;4965759;28;20082;-69
2023/01/27 06:56:00;;;;;;;16.70;10.23;;;0.10;99.90;;;-0.49;100.00;98137.00;4945237;28;20209;-69
2023/01/27 06:58:28;;;;;;;19.50;10.65;;;0.10;99.90;;;-0.64;100.00;98127.53;4966511;28;20466;-70
2023/01/27 07:00:57;;;;;;;19.10;7.93;;;0.10;99.90;;;-0.54;100.00;98133.56;4959517;28;20705;-69
2023/01/27 07:03:24;;;;;;;17.33;9.05;;;0.10;99.90;;;-0.53;100.00;98139.50;4948151;28;20389;-70
2023/01/27 07:05:52;;;;;;;14.95;7.97;;;0.10;99.90;;;-0.53;100.00;98139.50;4946088;28;20061;-70
2023/01/27 07:08:19;;;;;;;15.30;8.27;;;0.10;99.90;;;-0.57;100.00;98143.75;4975949;28;20047;-69
2023/01/27 07:10:46;;;;;;;17.95;9.05;;;0.10;99.90;;;-0.47;100.00;98149.78;4963469;28;20058;-70
2023/01/27 07:13:14;;;;;;;18.23;8.73;;;0.10;99.90;;;-0.48;100.00;98150.59;4961760;28;20102;-69
2023/01/27 07:15:42;;;;;;;21.70;10.25;;;0.10;99.90;;;-0.60;100.00;98147.94;4975831;28;20461;-69
2023/01/27 07:18:11;;;;;;;18.92;9.07;;;0.00;99.90;;;-0.56;100.00;98155.63;4960234;28;20134;-69
2023/01/27 07:20:39;;;;;;;14.05;7.55;;;0.20;99.90;;;-0.53;100.00;98160.75;4943416;28;20165;-69
2023/01/27 07:23:07;;;;;;;16.23;8.63;;;0.20;99.90;;;-0.44;100.00;98160.84;4962527;28;20056;-69
2023/01/27 07:25:35;;;;;;;19.52;9.52;;;0.20;99.90;;;-0.50;100.00;98162.47;4943354;28;20051;-70
2023/01/27 07:28:03;;;;;;;16.70;7.70;;;0.20;99.90;;;-0.46;100.00;98169.34;4959548;28;20153;-69
2023/01/27 07:30:32;;;;;;;17.40;9.23;;;0.20;99.90;;;-0.49;100.00;98169.31;4959651;28;20130;-69
2023/01/27 07:33:09;;;;;;;13.70;7.90;;;0.20;99.90;;;-0.47;100.00;98165.94;4964954;28;20051;-70
2023/01/27 07:35:37;;;;;;;25.00;12.02;;;0.20;99.90;;;-0.38;100.00;98177.09;4965355;28;20092;-69
2023/01/27 07:38:05;;;;;;;17.33;9.45;;;0.20;99.90;;;-0.43;100.00;98174.50;4959623;28;20556;-69
2023/01/27 07:40:33;;;;;;;21.73;10.60;;;0.20;99.90;;;-0.37;100.00;98176.22;4962433;28;20074;-69
2023/01/27 07:43:03;;;;;;;15.15;8.18;;;0.30;99.90;;;-0.46;100.00;98177.88;4959173;28;20043;-69
2023/01/27 07:45:30;;;;;;;21.33;10.50;;;0.30;99.90;;;-0.32;100.00;98178.00;4945405;28;20820;-69
2023/01/27 07:48:03;;;;;;;22.77;10.85;;;0.30;99.90;;;-0.13;100.00;98179.03;4950986;28;20043;-69
2023/01/27 07:50:31;;;;;;;16.48;7.78;;;0.50;99.90;;;-0.15;100.00;98182.41;4963011;28;20054;-70
2023/01/27 07:53:01;;;;;;;19.60;9.48;;;0.50;99.90;;;-0.25;100.00;98177.22;4958725;28;20138;-69
2023/01/27 07:55:29;;;;;;;17.48;10.57;;;0.50;99.90;;;-0.15;100.00;98178.16;4950451;28;20051;-69
2023/01/27 07:57:56;;;;;;;18.80;9.85;;;0.50;99.90;;;-0.23;100.00;98172.13;4942956;28;20050;-70
2023/01/27 08:00:24;;;;;;;18.45;9.80;;;0.50;99.90;;;0.00;100.00;98177.47;4945440;28;20051;-70
2023/01/27 08:02:52;;;;;;;16.15;8.68;;;0.60;99.90;;;0.03;100.00;98167.28;4965821;28;20053;-69
2023/01/27 08:05:24;;;;;;;17.15;9.00;;;0.80;99.90;;;-0.07;100.00;98163.78;4948030;28;20130;-70
2023/01/27 08:07:53;;;;;;;18.25;9.25;;;;;;;-0.24;100.00;98166.16;4938417;28;20792;-69
2023/01/27 08:10:24;;;;;;;17.40;8.55;;;0.60;99.90;;;-0.22;100.00;98163.63;4957686;28;20425;-70
2023/01/27 08:12:51;;;;;;;14.52;7.82;;;0.60;99.90;;;-0.16;100.00;98160.28;4943559;28;20110;-69
2023/01/27 08:15:18;;;;;;;15.45;8.38;;;0.50;99.90;;;-0.24;100.00;98165.31;4964332;28;20082;-69
2023/01/27 08:17:56;;;;;;;14.45;8.38;;;0.50;99.90;;;-0.35;100.00;98151.59;4972506;28;20066;-70
2023/01/27 08:20:26;;;;;;;15.77;7.70;;;0.50;99.90;;;-0.34;100.00;98161.81;4948113;28;20043;-69
2023/01/27 08:22:55;;;;;;;15.68;8.25;;;0.40;99.90;;;-0.30;100.00;98167.78;4949352;28;20170;-69
2023/01/27 08:25:23;;;;;;;16.58;8.18;;;0.40;99.90;;;-0.35;100.00;98162.66;4961259;28;20129;-69
2023/01/27 08:27:55;;;;;;;16.13;8.02;;;0.40;99.90;;;-0.32;100.00;98161.81;4962471;28;20457;-69
2023/01/27 08:30:22;;;;;;;19.88;9.38;;;0.40;99.90;;;-0.39;100.00;98171.09;4947225;28;20089;-69
2023/01/27 08:32:49;;;;;;;22.02;9.38;;;0.40;99.90;;;-0.25;100.00;98179.78;4949414;28;20070;-69
2023/01/27 08:35:17;;;;;;;17.83;7.78;;;0.50;99.90;;;-0.24;100.00;98183.19;4965800;28;20078;-69
2023/01/27 08:37:47;;;;;;;16.33;8.68;;;0.50;99.90;;;-0.40;100.00;98179.59;4959485;28;20602;-69
2023/01/27 08:40:15;;;;;;;14.13;7.70;;;0.40;99.90;;;-0.40;100.00;98173.66;4930829;28;20054;-69
2023/01/27 08:42:42;;;;;;;16.98;8.38;;;0.40;99.90;;;-0.24;100.00;98186.56;4957840;28;20454;-69
2023/01/27 08:45:10;;;;;;;17.08;8.80;;;0.50;99.90;;;-0.36;100.00;98183.91;4975277;28;20422;-69
2023/01/27 08:47:37;;;;;;;13.30;8.30;;;0.40;99.90;;;-0.20;100.00;98187.47;4970329;28;20142;-69
2023/01/27 08:50:05;;;;;;;14.13;7.10;;;0.60;99.90;;;-0.29;100.00;98180.56;4975495;28;20576;-69
2023/01/27 08:52:32;;;;;;;20.10;10.18;;;0.50;99.90;;;-0.19;100.00;98186.63;4961875;28;20054;-69
2023/01/27 08:54:59;;;;;;;14.38;6.93;;;0.60;99.90;;;-0.27;100.00;98183.16;4948298;28;20059;-69
2023/01/27 08:57:26;;;;;;;13.60;6.45;;;0.60;99.90;;;-0.11;100.00;98192.66;4974357;28;20055;-69
2023/01/27 08:59:53;;;;;;;10.65;5.38;;;0.70;99.90;;;-0.26;100.00;98197.59;4963854;28;20066;-69
2023/01/27 09:02:23;;;;;;;11.40;5.43;;;0.60;99.90;;;-0.26;100.00;98198.47;4941471;28;20133;-70
2023/01/27 09:04:50;;;;;;;9.63;5.60;;;0.60;99.90;;;-0.22;100.00;98194.25;4955014;28;20565;-69
2023/01/27 09:07:18;;;;;;;9.68;4.72;;;0.60;99.90;;;-0.20;100.00;98195.13;4960163;28;20050;-69
2023/01/27 09:09:49;;;;;;;12.32;5.70;;;0.60;99.90;;;-0.36;100.00;98200.91;4960670;28;20050;-69
2023/01/27 09:12:21;;;;;;;11.13;5.43;;;0.50;99.90;;;-0.38;100.00;98205.16;4945509;28;20192;-69
2023/01/27 09:14:48;;;;;;;12.65;6.00;;;0.40;99.90;;;-0.35;100.00;98212.81;4941596;28;20795;-69
2023/01/27 09:17:18;;;;;;;9.32;4.95;;;0.40;99.90;;;-0.15;100.00;98213.88;4957696;28;20051;-69
2023/01/27 09:19:46;;;;;;;11.82;5.05;;;0.50;99.90;;;-0.24;100.00;98214.63;4957078;28;20047;-69
2023/01/27 09:22:13;;;;;;;8.68;5.35;;;0.50;99.90;;;-0.12;100.00;98216.47;4945363;28;20452;-69
2023/01/27 09:24:40;;;;;;;12.18;5.82;;;0.60;99.90;;;-0.14;100.00;98215.59;4960365;28;20047;-69
2023/01/27 09:27:07;;;;;;;11.60;5.97;;;0.60;99.90;;;-0.13;100.00;98221.56;4962196;28;20131;-70
2023/01/27 09:29:35;;;;;;;9.93;5.57;;;0.70;99.90;;;-0.05;100.00;98217.38;4962692;28;20051;-69
2023/01/27 09:32:03;;;;;;;8.60;4.65;;;0.80;99.90;;;0.05;100.00;98224.28;4949007;28;20045;-69
2023/01/27 09:34:30;;;;;;;13.70;6.90;;;0.90;99.90;;;0.09;100.00;98212.41;4960447;28;20046;-69
2023/01/27 09:37:04;;;;;;;9.23;5.32;;;1.00;99.90;;;0.18;100.00;98220.13;4932560;28;20047;-70
2023/01/27 09:39:35;;;;;;;12.77;5.72;;;1.10;99.90;;;0.39;100.00;98216.94;4948380;28;20674;-70
2023/01/27 09:42:21;;;;;;;9.90;5.40;;;1.20;99.90;;;0.35;100.00;98216.03;4963432;28;20470;-69
2023/01/27 09:45:28;;;;;;;11.60;6.00;;;1.30;99.90;;;0.21;100.00;98217.63;4958996;28;20047;-70
2023/01/27 09:48:09;;;;;;;16.83;6.75;;;1.10;99.90;;;0.35;100.00;98215.19;4961326;28;20387;-70
2023/01/27 09:50:45;;;;;;;9.80;5.50;;;1.20;99.90;;;0.46;100.00;98217.81;4958999;28;20050;-70
2023/01/27 09:53:22;;;;;;;11.07;5.45;;;1.40;99.90;;;0.41;100.00;98225.44;4948310;28;20134;-70
2023/01/27 09:56:01;;;;;;;10.05;4.78;;;1.40;99.90;;;0.51;100.00;98226.41;4960169;28;20047;-70
2023/01/27 09:58:53;;;;;;;15.70;8.38;;;1.50;99.90;;;0.18;100.00;98209.94;4944925;28;20504;-70
2023/01/27 10:01:43;;;;;;;12.73;6.50;;;1.20;99.90;;;0.42;100.00;98224.63;4963392;28;20173;-70
2023/01/27 10:04:49;;;;;;;13.52;6.32;;;1.30;99.90;;;0.15;100.00;98223.53;4953922;28;20471;-70
2023/01/27 10:07:27;;;;;;;11.82;6.80;;;1.00;99.90;;;0.02;100.00;98226.78;4918317;28;20114;-70
2023/01/27 10:10:48;;;;;;;13.65;6.65;;;1.00;99.90;;;0.15;100.00;98230.34;4971916;28;20559;-70
2023/01/27 10:13:36;;;;;;;13.98;7.80;;;1.00;99.90;;;0.07;100.00;98232.81;4956768;28;20051;-69
2023/01/27 10:16:21;;;;;;;22.25;10.75;;;0.90;99.90;;;0.16;100.00;98230.34;4963452;28;20053;-70
2023/01/27 10:19:09;;;;;;;13.00;7.57;;;1.00;99.90;;;0.23;100.00;98230.41;4956892;28;20219;-70
2023/01/27 10:22:04;;;;;;;13.68;6.90;;;1.10;99.90;;;0.43;100.00;98226.31;4972476;28;20161;-70
2023/01/27 10:25:16;;;;;;;11.15;6.10;;;1.30;99.90;;;0.67;100.00;98223.09;4974680;28;20047;-70
2023/01/27 10:27:48;;;;;;;9.15;5.13;;;1.50;99.90;;;0.73;100.00;98215.50;4957125;28;20051;-69
2023/01/27 10:30:35;;;;;;;13.35;6.82;;;1.70;99.90;;;0.47;100.00;98212.72;4979115;28;20057;-70
2023/01/27 10:33:21;;;;;;;11.23;5.72;;;1.60;99.90;;;0.77;100.00;98216.34;4925098;28;20074;-70
2023/01/27 10:35:53;;;;;;;9.98;6.05;;;1.80;99.90;;;0.66;100.00;98200.94;4972570;28;20050;-70
2023/01/27 10:38:56;;;;;;;9.52;5.25;;;1.60;99.90;;;0.79;100.00;98196.78;4957866;28;20051;-69
2023/01/27 10:41:40;;;;;;;14.13;6.63;;;1.80;99.90;;;0.87;100.00;98184.03;4947015;28;20433;-70
2023/01/27 10:44:37;;;;;;;;;;;1.80;99.90;;;0.61;100.00;98179.63;4971672;28;20597;-71
2023/01/27 10:47:11;;;;;;;10.55;5.20;;;1.80;99.90;;;0.80;100.00;98185.72;4958532;28;19922;-71
2023/01/27 10:49:42;;;;;;;12.02;6.00;;;2.00;99.90;;;0.99;100.00;98177.28;4959639;28;20138;-71
2023/01/27 10:52:19;;;;;;;11.38;5.63;;;2.10;99.90;;;1.16;100.00;98179.06;4943122;28;20509;-70
2023/01/27 10:55:20;;;;;;;11.35;5.78;;;2.20;99.90;;;1.17;100.00;98173.13;4925550;28;20126;-70
2023/01/27 10:57:59;;;;;;;9.30;5.50;;;2.30;99.90;;;1.45;100.00;98167.25;4973558;28;20050;-71